createdAt,value
2019-05-26T00:03:04.962Z,15.80
2019-05-26T00:08:09.298Z,15.70
2019-05-26T00:13:13.665Z,15.70
2019-05-26T00:18:18.092Z,15.60
2019-05-26T00:23:22.574Z,15.60
2019-05-26T00:28:27.058Z,15.60
2019-05-26T00:33:31.523Z,15.60
2019-05-26T00:38:35.828Z,15.40
2019-05-26T00:43:40.267Z,15.40
2019-05-26T00:48:44.782Z,15.50
2019-05-26T00:53:49.104Z,15.60
2019-05-26T00:58:53.432Z,15.50
2019-05-26T01:03:57.744Z,15.40
2019-05-26T01:09:02.039Z,15.30
2019-05-26T01:14:06.747Z,15.20
2019-05-26T01:19:11.153Z,15.10
2019-05-26T01:24:15.559Z,15.00
2019-05-26T01:29:19.945Z,15.00
2019-05-26T01:34:24.337Z,14.80
2019-05-26T01:39:28.735Z,14.70
2019-05-26T01:44:33.049Z,14.60
2019-05-26T01:49:37.383Z,14.80
2019-05-26T01:54:41.712Z,14.70
2019-05-26T01:59:46.048Z,14.70
2019-05-26T02:04:50.403Z,14.70
2019-05-26T02:09:54.696Z,14.60
2019-05-26T02:14:58.994Z,14.50
2019-05-26T02:20:03.303Z,14.60
2019-05-26T02:25:09.536Z,14.60
2019-05-26T02:30:14.234Z,14.50
2019-05-26T02:35:18.832Z,14.50
2019-05-26T02:40:23.164Z,14.40
2019-05-26T02:45:27.559Z,14.30
2019-05-26T02:50:31.878Z,14.30
2019-05-26T02:55:36.287Z,14.30
2019-05-26T03:00:43.354Z,14.30
2019-05-26T03:05:48.084Z,14.30
2019-05-26T03:10:54.337Z,14.30
2019-05-26T03:16:00.815Z,14.30
2019-05-26T03:21:05.853Z,14.20
2019-05-26T03:26:12.035Z,14.10
2019-05-26T03:31:16.367Z,14.10
2019-05-26T03:36:20.807Z,14.10
2019-05-26T03:41:25.180Z,14.10
2019-05-26T03:46:29.497Z,14.10
2019-05-26T03:51:33.808Z,14.10
2019-05-26T03:56:38.115Z,14.20
2019-05-26T04:01:42.427Z,14.20
2019-05-26T04:06:46.770Z,14.30
2019-05-26T04:11:51.039Z,14.20
2019-05-26T04:17:00.541Z,14.30
2019-05-26T04:22:04.867Z,14.40
2019-05-26T04:27:14.376Z,14.50
2019-05-26T04:32:18.721Z,14.60
2019-05-26T04:37:23.058Z,14.70
2019-05-26T04:42:27.364Z,14.70
2019-05-26T04:47:31.707Z,14.70
2019-05-26T04:52:36.092Z,14.90
2019-05-26T04:57:40.524Z,15.00
2019-05-26T05:02:44.981Z,15.10
2019-05-26T05:07:49.406Z,15.20
2019-05-26T05:12:53.718Z,15.30
2019-05-26T05:17:58.230Z,15.30
2019-05-26T05:23:02.606Z,15.30
2019-05-26T05:28:06.949Z,15.30
2019-05-26T05:33:11.244Z,15.20
2019-05-26T05:38:15.563Z,15.30
2019-05-26T05:43:19.855Z,15.40
2019-05-26T05:48:24.147Z,15.50
2019-05-26T05:53:28.483Z,15.70
2019-05-26T05:58:32.949Z,15.70
2019-05-26T06:03:37.277Z,15.80
2019-05-26T06:08:42.680Z,15.80
2019-05-26T06:13:47.030Z,15.80
2019-05-26T06:18:51.367Z,15.70
2019-05-26T06:23:55.799Z,15.70
2019-05-26T06:29:00.156Z,15.70
2019-05-26T06:34:04.590Z,15.90
2019-05-26T06:39:11.975Z,15.90
2019-05-26T06:44:16.302Z,15.90
2019-05-26T06:49:20.609Z,16.00
2019-05-26T06:54:24.907Z,16.10
2019-05-26T06:59:29.227Z,16.10
2019-05-26T07:04:33.633Z,16.20
2019-05-26T07:09:38.184Z,16.40
2019-05-26T07:14:42.577Z,16.50
2019-05-26T07:19:47.065Z,16.40
2019-05-26T07:24:51.495Z,16.40
2019-05-26T07:29:55.935Z,16.40
2019-05-26T07:35:00.302Z,16.40
2019-05-26T07:40:05.247Z,16.50
2019-05-26T07:45:09.930Z,16.60
2019-05-26T07:50:14.494Z,16.70
2019-05-26T07:55:19.046Z,16.90
2019-05-26T08:00:23.468Z,17.00
2019-05-26T08:05:27.917Z,17.10
2019-05-26T08:10:32.359Z,17.20
2019-05-26T08:15:36.728Z,17.20
2019-05-26T08:20:43.353Z,17.30
2019-05-26T08:25:47.723Z,17.40
2019-05-26T08:30:52.098Z,17.50
2019-05-26T08:35:56.469Z,17.60
2019-05-26T08:41:00.844Z,17.80
2019-05-26T08:46:05.160Z,17.90
2019-05-26T08:51:09.496Z,18.00
2019-05-26T08:56:13.822Z,18.10
2019-05-26T09:01:18.165Z,18.30
2019-05-26T09:06:22.601Z,18.40
2019-05-26T09:11:27.039Z,18.50
2019-05-26T09:16:31.567Z,18.50
2019-05-26T09:21:36.089Z,18.60
2019-05-26T09:26:40.868Z,18.60
2019-05-26T09:31:45.388Z,18.60
2019-05-26T09:36:49.908Z,18.70
2019-05-26T09:41:54.471Z,18.80
2019-05-26T09:46:58.852Z,18.80
2019-05-26T09:52:03.252Z,19.00
2019-05-26T09:57:07.581Z,19.10
2019-05-26T10:02:13.903Z,19.20
2019-05-26T10:07:18.224Z,19.30
2019-05-26T10:12:22.559Z,19.50
2019-05-26T10:17:26.932Z,19.70
2019-05-26T10:22:31.296Z,19.80
2019-05-26T10:27:35.697Z,19.90
2019-05-26T10:32:40.115Z,19.90
2019-05-26T10:37:44.500Z,20.00
2019-05-26T10:42:49.035Z,20.10
2019-05-26T10:47:53.504Z,20.20
2019-05-26T10:52:57.815Z,20.20
2019-05-26T10:58:02.266Z,20.20
2019-05-26T11:03:06.578Z,20.20
2019-05-26T11:08:10.954Z,20.30
2019-05-26T11:13:15.519Z,20.40
2019-05-26T11:18:20.004Z,20.50
2019-05-26T11:23:24.431Z,20.60
2019-05-26T11:28:28.787Z,20.70
2019-05-26T11:33:33.098Z,20.80
2019-05-26T11:38:37.610Z,20.90
2019-05-26T11:43:41.948Z,20.90
2019-05-26T11:48:46.289Z,21.00
2019-05-26T11:53:50.848Z,21.20
2019-05-26T11:58:55.260Z,21.30
2019-05-26T12:03:59.656Z,21.40
2019-05-26T12:09:06.105Z,21.40
2019-05-26T12:14:10.505Z,21.50
2019-05-26T12:19:14.831Z,21.60
2019-05-26T12:24:19.174Z,21.70
2019-05-26T12:29:23.722Z,21.80
2019-05-26T12:34:28.272Z,21.90
2019-05-26T12:39:32.611Z,22.00
2019-05-26T12:44:48.877Z,21.90
2019-05-26T12:49:43.059Z,21.90
2019-05-26T12:54:47.412Z,21.90
2019-05-26T12:59:51.739Z,21.90
2019-05-26T13:04:58.252Z,21.90
2019-05-26T13:10:02.645Z,21.90
2019-05-26T13:15:07.919Z,22.10
2019-05-26T13:20:12.999Z,22.20
2019-05-26T13:25:18.233Z,22.30
2019-05-26T13:30:23.209Z,22.50
2019-05-26T13:35:27.679Z,22.60
2019-05-26T13:40:32.073Z,22.80
2019-05-26T13:45:36.452Z,22.70
2019-05-26T13:50:40.786Z,22.50
2019-05-26T13:55:45.128Z,22.40
2019-05-26T14:00:49.469Z,22.30
2019-05-26T14:05:53.794Z,22.20
2019-05-26T14:10:59.607Z,22.10
2019-05-26T14:16:05.659Z,22.10
2019-05-26T14:21:12.041Z,22.00
2019-05-26T14:26:16.484Z,21.80
2019-05-26T14:31:21.998Z,21.70
2019-05-26T14:36:26.405Z,21.70
2019-05-26T14:41:30.766Z,21.70
2019-05-26T14:46:35.223Z,21.70
2019-05-26T14:51:39.557Z,21.70
2019-05-26T14:56:44.016Z,21.80
2019-05-26T15:01:48.397Z,21.70
2019-05-26T15:06:52.734Z,21.70
2019-05-26T15:11:57.100Z,21.70
2019-05-26T15:17:01.699Z,21.70
2019-05-26T15:22:06.026Z,21.70
2019-05-26T15:27:10.343Z,21.70
2019-05-26T15:32:14.685Z,21.70
2019-05-26T15:37:19.424Z,21.70
2019-05-26T15:42:24.064Z,21.80
2019-05-26T15:47:28.561Z,21.70
2019-05-26T15:52:32.957Z,21.70
2019-05-26T15:57:50.083Z,21.80
2019-05-26T16:02:57.792Z,21.80
2019-05-26T16:08:03.313Z,21.90
2019-05-26T16:13:07.947Z,22.00
2019-05-26T16:18:12.352Z,22.00
2019-05-26T16:23:16.729Z,21.90
2019-05-26T16:28:21.137Z,21.80
2019-05-26T16:33:25.531Z,21.80
2019-05-26T16:38:31.529Z,21.80
2019-05-26T16:43:35.916Z,21.70
2019-05-26T16:48:40.524Z,21.70
2019-05-26T16:53:47.355Z,21.60
2019-05-26T16:58:51.751Z,21.40
2019-05-26T17:03:56.101Z,21.40
2019-05-26T17:09:00.411Z,21.40
2019-05-26T17:14:04.857Z,21.40
2019-05-26T17:19:09.727Z,21.50
2019-05-26T17:24:14.295Z,21.60
2019-05-26T17:29:19.149Z,21.70
2019-05-26T17:34:23.664Z,21.60
2019-05-26T17:39:28.341Z,21.80
2019-05-26T17:44:34.085Z,21.80
2019-05-26T17:49:46.876Z,21.70
2019-05-26T17:54:51.881Z,21.70
2019-05-26T17:59:56.689Z,21.60
2019-05-26T18:05:01.178Z,21.70
2019-05-26T18:10:06.425Z,21.70
2019-05-26T18:15:11.818Z,21.70
2019-05-26T18:20:16.154Z,21.70
2019-05-26T18:25:22.363Z,21.60
2019-05-26T18:30:26.667Z,21.50
2019-05-26T18:35:38.432Z,21.60
2019-05-26T18:40:42.908Z,21.50
2019-05-26T18:45:47.201Z,21.50
2019-05-26T18:50:54.755Z,21.40
2019-05-26T18:55:59.346Z,21.30
2019-05-26T19:01:06.724Z,21.20
2019-05-26T19:06:11.307Z,21.20
2019-05-26T19:11:15.728Z,21.20
2019-05-26T19:16:20.056Z,21.20
2019-05-26T19:21:24.599Z,21.10
2019-05-26T19:26:29.012Z,21.10
2019-05-26T19:31:33.409Z,21.10
2019-05-26T19:36:37.854Z,21.10
2019-05-26T19:41:42.174Z,21.20
2019-05-26T19:46:46.542Z,21.10
2019-05-26T19:51:50.887Z,21.00
2019-05-26T19:56:55.210Z,21.00
2019-05-26T20:02:16.887Z,20.90
2019-05-26T20:07:06.630Z,20.90
2019-05-26T20:12:11.044Z,20.80
2019-05-26T20:17:15.869Z,20.80
2019-05-26T20:22:24.657Z,20.80
2019-05-26T20:27:29.315Z,20.80
2019-05-26T20:32:35.975Z,20.80
2019-05-26T20:37:40.350Z,20.80
2019-05-26T20:42:47.499Z,20.70
2019-05-26T20:47:53.665Z,20.60
2019-05-26T20:52:58.188Z,20.60
2019-05-26T20:58:03.047Z,20.50
2019-05-26T21:03:07.395Z,20.50
2019-05-26T21:08:11.803Z,20.50
2019-05-26T21:13:16.181Z,20.60
2019-05-26T21:18:20.501Z,20.70
2019-05-26T21:23:24.995Z,20.60
2019-05-26T21:28:29.368Z,20.50
2019-05-26T21:33:33.750Z,20.40
2019-05-26T21:38:38.065Z,20.20
2019-05-26T21:43:42.424Z,20.10
2019-05-26T21:48:46.784Z,20.00
2019-05-26T21:53:51.124Z,19.90
2019-05-26T21:58:55.445Z,19.80
2019-05-26T22:03:59.771Z,19.70
2019-05-26T22:09:05.758Z,19.70
2019-05-26T22:14:10.158Z,19.80
2019-05-26T22:19:14.487Z,19.70
2019-05-26T22:24:18.813Z,19.60
2019-05-26T22:29:23.127Z,19.70
2019-05-26T22:34:27.487Z,19.60
2019-05-26T22:39:31.785Z,19.60
2019-05-26T22:44:36.375Z,19.50
2019-05-26T22:49:40.787Z,19.40
2019-05-26T22:54:45.152Z,19.30
2019-05-26T22:59:49.500Z,19.10
2019-05-26T23:04:53.927Z,19.10
2019-05-26T23:09:58.300Z,19.00
2019-05-26T23:15:02.628Z,18.90
2019-05-26T23:20:08.359Z,19.10
2019-05-26T23:25:13.209Z,19.00
2019-05-26T23:30:24.980Z,19.00
2019-05-26T23:35:29.308Z,19.00
2019-05-26T23:40:33.608Z,18.70
2019-05-26T23:45:37.955Z,18.60
2019-05-26T23:50:42.238Z,18.60
2019-05-26T23:55:46.545Z,18.60
